Time;durP1;ratioP1;P1;durP2;ratioP2;P2;SDS_P1;SDS_P2;PMS_P1;PMS_P2;Temp;Humidity;BMP_temperature;BMP_pressure;BME280_temperature;BME280_humidity;BME280_pressure;Samples;Min_cycle;Max_cycle;Signal;HPM_P1;HPM_P2
2023/09/05 00:01:12;;;;;;;7.53;5.32;;;;;;;;;;5013260;27;93530;-62
2023/09/05 00:03:39;;;;;;;7.43;5.22;;;;;;;;;;5013696;27;91759;-62
2023/09/05 00:06:10;;;;;;;5.50;5.00;;;;;;;;;;5012507;27;93563;-62
2023/09/05 00:08:38;;;;;;;6.45;4.60;;;;;;;;;;5013068;27;94432;-62
2023/09/05 00:11:04;;;;;;;8.07;4.55;;;;;;;;;;5011231;27;95330;-62
2023/09/05 00:13:31;;;;;;;6.50;4.93;;;;;;;;;;5012835;27;95849;-62
2023/09/05 00:15:57;;;;;;;8.70;5.07;;;;;;;;;;5013535;27;94476;-62
2023/09/05 00:18:24;;;;;;;5.68;4.50;;;;;;;;;;5016210;27;92296;-62
2023/09/05 00:20:54;;;;;;;8.30;4.57;;;;;;;;;;5016058;27;93068;-62
2023/09/05 00:23:21;;;;;;;;;;;;;;;;;;5013331;27;92385;-59
2023/09/05 00:25:47;;;;;;;14.45;4.70;;;;;;;;;;5014728;27;122307;-61
2023/09/05 00:28:13;;;;;;;5.47;4.30;;;;;;;;;;5013341;27;93075;-62
2023/09/05 00:30:40;;;;;;;5.07;4.50;;;;;;;;;;5012458;27;92438;-62
2023/09/05 00:33:06;;;;;;;13.23;4.70;;;;;;;;;;5016493;27;93482;-62
2023/09/05 00:35:34;;;;;;;7.80;4.55;;;;;;;;;;5011415;27;95867;-62
2023/09/05 00:38:00;;;;;;;7.10;4.40;;;;;;;;;;5012938;27;92513;-62
2023/09/05 00:40:27;;;;;;;8.13;4.53;;;;;;;;;;5019557;27;93102;-62
2023/09/05 00:42:54;;;;;;;6.65;4.75;;;;;;;;;;5013012;27;92416;-62
2023/09/05 00:45:20;;;;;;;8.23;4.90;;;;;;;;;;5013436;27;94132;-62
2023/09/05 00:47:47;;;;;;;5.72;4.72;;;;;;;;;;5016232;27;94144;-62
2023/09/05 00:50:17;;;;;;;6.70;4.47;;;;;;;;;;5013154;27;92533;-62
2023/09/05 00:52:44;;;;;;;7.30;4.20;;;;;;;;;;5013342;27;93455;-62
2023/09/05 00:55:11;;;;;;;4.70;4.30;;;;;;;;;;5012327;27;93428;-62
2023/09/05 00:57:38;;;;;;;5.72;3.97;;;;;;;;;;5016271;27;92391;-61
2023/09/05 01:00:09;;;;;;;5.05;4.30;;;;;;;;;;5011563;27;94795;-61
2023/09/05 01:02:36;;;;;;;6.88;4.82;;;;;;;;;;5015713;27;94498;-61
2023/09/05 01:05:04;;;;;;;5.28;4.60;;;;;;;;;;5012124;27;93573;-61
2023/09/05 01:07:39;;;;;;;5.20;4.70;;;;;;;;;;5012559;27;93665;-61
2023/09/05 01:10:14;;;;;;;8.13;4.43;;;;;;;;;;5012466;27;92479;-61
2023/09/05 01:12:41;;;;;;;7.38;4.72;;;;;;;;;;5012297;27;93160;-61
2023/09/05 01:15:08;;;;;;;10.18;4.90;;;;;;;;;;5012004;27;93325;-61
2023/09/05 01:17:35;;;;;;;6.50;4.43;;;;;;;;;;5017395;27;91841;-61
2023/09/05 01:20:03;;;;;;;8.70;5.13;;;;;;;;;;5017652;27;92337;-62
2023/09/05 01:22:35;;;;;;;6.90;4.47;;;;;;;;;;5015971;27;93434;-61
2023/09/05 01:25:02;;;;;;;8.82;4.60;;;;;;;;;;5017198;27;94879;-61
2023/09/05 01:27:29;;;;;;;5.53;4.97;;;;;;;;;;5014973;27;93912;-61
2023/09/05 01:29:56;;;;;;;5.15;4.60;;;;;;;;;;5015867;27;92422;-61
2023/09/05 01:32:23;;;;;;;4.82;4.30;;;;;;;;;;5016160;27;93125;-61
2023/09/05 01:34:50;;;;;;;8.20;4.68;;;;;;;;;;5016209;27;94036;-61
2023/09/05 01:37:16;;;;;;;10.48;5.35;;;;;;;;;;5015633;27;92597;-61
2023/09/05 01:39:43;;;;;;;5.00;4.60;;;;;;;;;;5015737;27;94286;-61
2023/09/05 01:42:09;;;;;;;5.72;4.50;;;;;;;;;;5015604;27;93984;-61
2023/09/05 01:44:36;;;;;;;8.85;5.10;;;;;;;;;;5016324;27;92741;-61
2023/09/05 01:47:03;;;;;;;11.05;4.80;;;;;;;;;;5022287;27;92916;-61
2023/09/05 01:49:29;;;;;;;5.70;3.97;;;;;;;;;;5013540;27;94808;-61
2023/09/05 01:51:56;;;;;;;7.30;4.57;;;;;;;;;;5019659;27;95580;-61
2023/09/05 01:54:24;;;;;;;7.38;4.93;;;;;;;;;;5019553;27;93407;-61
2023/09/05 01:56:50;;;;;;;7.45;5.20;;;;;;;;;;5020137;27;92480;-61
2023/09/05 01:59:19;;;;;;;9.38;5.13;;;;;;;;;;5015392;27;92972;-61
2023/09/05 02:01:46;;;;;;;8.48;4.72;;;;;;;;;;5015772;28;95296;-61
2023/09/05 02:04:12;;;;;;;8.50;5.18;;;;;;;;;;5017538;27;92430;-61
2023/09/05 02:06:39;;;;;;;9.07;5.32;;;;;;;;;;5017527;27;94227;-61
2023/09/05 02:09:06;;;;;;;5.70;5.10;;;;;;;;;;5022202;27;93844;-62
2023/09/05 02:11:32;;;;;;;11.90;5.38;;;;;;;;;;5015535;27;93083;-61
2023/09/05 02:13:58;;;;;;;6.05;5.13;;;;;;;;;;5017218;27;95007;-61
2023/09/05 02:16:25;;;;;;;9.57;5.53;;;;;;;;;;5019754;27;92393;-62
2023/09/05 02:18:52;;;;;;;8.40;6.03;;;;;;;;;;5015732;27;93130;-61
2023/09/05 02:21:18;;;;;;;6.30;5.35;;;;;;;;;;5015016;27;92657;-62
2023/09/05 02:23:45;;;;;;;7.78;4.90;;;;;;;;;;5019257;27;92404;-61
2023/09/05 02:26:12;;;;;;;10.35;5.00;;;;;;;;;;5019943;27;94236;-62
2023/09/05 02:28:39;;;;;;;6.55;5.00;;;;;;;;;;5017468;27;93440;-61
2023/09/05 02:31:08;;;;;;;8.15;5.32;;;;;;;;;;5018214;27;91663;-62
2023/09/05 02:33:37;;;;;;;7.97;5.00;;;;;;;;;;5013876;27;94657;-61
2023/09/05 02:36:15;;;;;;;6.25;4.75;;;;;;;;;;5019451;27;92834;-62
2023/09/05 02:38:42;;;;;;;7.82;5.18;;;;;;;;;;5012375;27;94831;-61
2023/09/05 02:41:15;;;;;;;7.10;5.10;;;;;;;;;;5027412;27;94313;-61
2023/09/05 02:43:42;;;;;;;12.38;5.13;;;;;;;;;;5013969;27;95957;-62
2023/09/05 02:46:09;;;;;;;8.88;5.63;;;;;;;;;;5016082;27;93095;-61
2023/09/05 02:48:37;;;;;;;6.60;4.82;;;;;;;;;;5014213;27;93170;-61
2023/09/05 02:51:04;;;;;;;11.43;5.85;;;;;;;;;;5018123;27;92511;-62
2023/09/05 02:53:31;;;;;;;8.18;4.95;;;;;;;;;;5013999;27;93591;-62
2023/09/05 02:55:57;;;;;;;7.57;5.13;;;;;;;;;;5024273;28;93874;-61
2023/09/05 02:58:26;;;;;;;8.48;5.20;;;;;;;;;;5019037;27;92521;-62
2023/09/05 03:00:57;;;;;;;7.20;5.13;;;;;;;;;;5014163;27;96956;-62
2023/09/05 03:03:23;;;;;;;9.02;5.53;;;;;;;;;;5013237;27;95095;-62
2023/09/05 03:05:51;;;;;;;6.55;5.40;;;;;;;;;;5014348;27;95655;-62
2023/09/05 03:08:17;;;;;;;8.10;6.20;;;;;;;;;;5018047;27;94423;-62
2023/09/05 03:10:43;;;;;;;8.65;5.78;;;;;;;;;;5018841;27;92567;-62
2023/09/05 03:13:10;;;;;;;8.80;5.78;;;;;;;;;;5017284;27;93062;-62
2023/09/05 03:15:36;;;;;;;7.22;4.80;;;;;;;;;;5014428;27;93203;-61
2023/09/05 03:18:02;;;;;;;5.40;4.82;;;;;;;;;;5018191;27;93383;-62
2023/09/05 03:20:29;;;;;;;8.02;4.88;;;;;;;;;;5013847;27;93858;-62
2023/09/05 03:22:55;;;;;;;5.07;4.57;;;;;;;;;;5018244;27;92406;-61
2023/09/05 03:25:22;;;;;;;7.82;4.72;;;;;;;;;;5014035;27;93121;-61
2023/09/05 03:27:48;;;;;;;6.90;5.40;;;;;;;;;;5011710;27;97166;-62
2023/09/05 03:30:14;;;;;;;6.85;5.10;;;;;;;;;;5014777;27;92397;-61
2023/09/05 03:32:41;;;;;;;9.60;5.00;;;;;;;;;;5014020;27;93445;-62
2023/09/05 03:35:07;;;;;;;11.23;5.10;;;;;;;;;;5016193;27;93446;-62
2023/09/05 03:37:34;;;;;;;6.00;4.82;;;;;;;;;;5013730;27;94211;-62
2023/09/05 03:40:00;;;;;;;6.15;4.70;;;;;;;;;;5018210;27;94522;-61
2023/09/05 03:42:27;;;;;;;9.52;5.32;;;;;;;;;;5014266;27;92789;-62
2023/09/05 03:44:53;;;;;;;9.93;4.55;;;;;;;;;;5014119;27;91842;-61
2023/09/05 03:47:19;;;;;;;6.97;5.25;;;;;;;;;;5018083;27;94377;-62
2023/09/05 03:49:46;;;;;;;7.78;5.07;;;;;;;;;;5013753;27;92620;-61
2023/09/05 03:52:12;;;;;;;11.88;4.82;;;;;;;;;;5010886;27;95248;-62
2023/09/05 03:54:39;;;;;;;9.77;5.10;;;;;;;;;;5013093;27;93457;-62
2023/09/05 03:57:05;;;;;;;8.40;5.50;;;;;;;;;;5017324;27;92520;-62
2023/09/05 03:59:31;;;;;;;8.18;5.47;;;;;;;;;;5013606;27;92396;-62
2023/09/05 04:01:58;;;;;;;7.05;5.47;;;;;;;;;;5013761;27;92430;-62
2023/09/05 04:04:24;;;;;;;9.35;5.22;;;;;;;;;;5013055;27;93106;-62
2023/09/05 04:06:50;;;;;;;6.32;4.53;;;;;;;;;;5014051;27;94442;-62
2023/09/05 04:09:17;;;;;;;9.68;5.72;;;;;;;;;;5013815;27;91736;-61
2023/09/05 04:11:43;;;;;;;9.75;4.60;;;;;;;;;;5013309;27;93523;-62
2023/09/05 04:14:10;;;;;;;9.23;4.63;;;;;;;;;;5012320;27;93305;-62
2023/09/05 04:16:36;;;;;;;8.30;4.32;;;;;;;;;;5012955;27;95397;-61
2023/09/05 04:19:03;;;;;;;6.93;4.93;;;;;;;;;;5016140;27;96425;-61
2023/09/05 04:21:29;;;;;;;6.68;5.07;;;;;;;;;;5017666;27;92495;-61
2023/09/05 04:23:56;;;;;;;7.75;4.90;;;;;;;;;;5012807;27;94945;-62
2023/09/05 04:26:25;;;;;;;7.95;5.00;;;;;;;;;;5013060;27;93375;-61
2023/09/05 04:28:52;;;;;;;5.90;4.93;;;;;;;;;;5013638;27;92540;-61
2023/09/05 04:31:19;;;;;;;8.73;4.70;;;;;;;;;;5013142;27;93519;-61
2023/09/05 04:33:46;;;;;;;8.88;5.20;;;;;;;;;;5017368;27;92772;-61
2023/09/05 04:36:12;;;;;;;8.70;5.40;;;;;;;;;;5013118;27;92373;-61
2023/09/05 04:38:41;;;;;;;8.98;5.43;;;;;;;;;;5016132;27;94031;-62
2023/09/05 04:41:07;;;;;;;8.18;5.47;;;;;;;;;;5011846;27;94975;-61
2023/09/05 04:43:34;;;;;;;8.38;5.22;;;;;;;;;;5016893;27;96541;-61
2023/09/05 04:46:03;;;;;;;6.32;4.88;;;;;;;;;;5014814;27;93342;-61
2023/09/05 04:48:29;;;;;;;6.95;4.55;;;;;;;;;;5013201;27;92378;-61
2023/09/05 04:50:58;;;;;;;7.22;4.90;;;;;;;;;;5012309;27;93145;-61
2023/09/05 04:53:25;;;;;;;5.32;4.68;;;;;;;;;;5012806;27;93380;-61
2023/09/05 04:55:51;;;;;;;7.50;5.20;;;;;;;;;;5016441;27;92444;-61
2023/09/05 04:58:18;;;;;;;6.05;5.10;;;;;;;;;;5020352;27;93172;-63
2023/09/05 05:00:47;;;;;;;7.47;4.88;;;;;;;;;;5022235;27;94595;-61
2023/09/05 05:03:14;;;;;;;5.07;4.57;;;;;;;;;;5019594;27;94012;-62
2023/09/05 05:05:40;;;;;;;7.47;5.05;;;;;;;;;;5021198;27;96804;-61
2023/09/05 05:08:07;;;;;;;13.02;5.32;;;;;;;;;;5018924;27;92702;-62
2023/09/05 05:10:37;;;;;;;6.85;5.15;;;;;;;;;;5019407;27;93156;-61
2023/09/05 05:13:03;;;;;;;8.70;5.40;;;;;;;;;;5019110;27;94480;-61
2023/09/05 05:15:30;;;;;;;6.88;4.82;;;;;;;;;;5019093;27;92963;-61
2023/09/05 05:17:56;;;;;;;11.25;5.38;;;;;;;;;;5024240;27;94137;-62
2023/09/05 05:20:23;;;;;;;15.07;6.40;;;;;;;;;;5017934;27;92414;-62
2023/09/05 05:22:49;;;;;;;11.27;6.43;;;;;;;;;;5026873;27;91866;-62
2023/09/05 05:25:15;;;;;;;10.13;5.85;;;;;;;;;;5018390;27;93904;-62
2023/09/05 05:27:42;;;;;;;11.10;5.95;;;;;;;;;;5018679;27;92547;-61
2023/09/05 05:30:08;;;;;;;8.23;5.40;;;;;;;;;;5031306;27;94904;-62
2023/09/05 05:32:35;;;;;;;10.93;5.80;;;;;;;;;;5022319;27;94522;-62
2023/09/05 05:35:01;;;;;;;9.52;5.95;;;;;;;;;;5018672;27;92461;-62
2023/09/05 05:37:28;;;;;;;10.18;5.78;;;;;;;;;;5018616;27;94258;-62
2023/09/05 05:39:54;;;;;;;9.30;5.55;;;;;;;;;;5019057;27;93164;-62
2023/09/05 05:42:21;;;;;;;14.82;5.95;;;;;;;;;;5018817;27;92634;-62
2023/09/05 05:44:47;;;;;;;11.27;5.97;;;;;;;;;;5022943;27;93525;-62
2023/09/05 05:47:13;;;;;;;9.27;5.72;;;;;;;;;;5019774;27;91867;-62
2023/09/05 05:49:40;;;;;;;10.50;6.60;;;;;;;;;;5019147;27;92390;-62
2023/09/05 05:52:08;;;;;;;9.82;5.43;;;;;;;;;;5018729;27;94334;-63
2023/09/05 05:54:35;;;;;;;13.27;6.05;;;;;;;;;;5017180;27;94822;-63
2023/09/05 05:57:01;;;;;;;12.95;6.00;;;;;;;;;;5026905;27;96797;-63
2023/09/05 05:59:28;;;;;;;8.40;5.55;;;;;;;;;;5018521;27;93382;-63
2023/09/05 06:01:55;;;;;;;7.95;5.22;;;;;;;;;;5017341;27;92337;-62
2023/09/05 06:04:23;;;;;;;7.38;5.43;;;;;;;;;;5018852;27;93154;-63
2023/09/05 06:06:49;;;;;;;8.90;5.25;;;;;;;;;;5018677;27;93468;-62
2023/09/05 06:09:18;;;;;;;6.75;4.80;;;;;;;;;;5022339;27;93492;-61
2023/09/05 06:11:45;;;;;;;9.50;5.55;;;;;;;;;;5014960;27;92452;-60
2023/09/05 06:14:12;;;;;;;7.38;4.90;;;;;;;;;;5014813;27;92548;-62
2023/09/05 06:16:38;;;;;;;7.82;5.15;;;;;;;;;;5016196;27;93109;-60
2023/09/05 06:19:07;;;;;;;6.43;5.10;;;;;;;;;;5017454;27;96954;-60
2023/09/05 06:21:34;;;;;;;5.65;4.70;;;;;;;;;;5015354;27;92469;-63
2023/09/05 06:24:00;;;;;;;15.43;5.25;;;;;;;;;;5015604;28;94933;-60
2023/09/05 06:26:27;;;;;;;10.98;4.90;;;;;;;;;;5015025;27;94467;-61
2023/09/05 06:28:53;;;;;;;7.32;5.13;;;;;;;;;;5017898;27;92958;-60
2023/09/05 06:31:20;;;;;;;8.30;5.45;;;;;;;;;;5014224;27;93368;-60
2023/09/05 06:33:46;;;;;;;11.18;5.13;;;;;;;;;;5015467;27;92417;-60
2023/09/05 06:36:12;;;;;;;6.78;5.20;;;;;;;;;;5015470;27;94195;-61
2023/09/05 06:38:39;;;;;;;9.43;5.20;;;;;;;;;;5014167;27;94330;-61
2023/09/05 06:41:06;;;;;;;6.03;4.50;;;;;;;;;;5018603;27;92967;-60
2023/09/05 06:43:32;;;;;;;12.65;4.90;;;;;;;;;;5021529;27;94936;-60
2023/09/05 06:46:06;;;;;;;10.55;5.38;;;;;;;;;;5017226;27;93372;-60
2023/09/05 06:48:35;;;;;;;9.70;5.07;;;;;;;;;;5018445;27;92475;-60
2023/09/05 06:51:01;;;;;;;13.23;5.55;;;;;;;;;;5018596;27;93587;-61
2023/09/05 06:53:28;;;;;;;10.38;5.72;;;;;;;;;;5018713;27;92568;-63
2023/09/05 06:55:55;;;;;;;10.65;5.28;;;;;;;;;;5013955;27;93513;-63
2023/09/05 06:58:22;;;;;;;8.57;5.07;;;;;;;;;;5013639;27;93477;-62
2023/09/05 07:00:53;;;;;;;7.72;5.30;;;;;;;;;;5015247;27;91900;-63
2023/09/05 07:03:19;;;;;;;;;;;;;;;;;;5018852;27;92788;-60
2023/09/05 07:05:46;;;;;;;7.03;4.15;;;;;;;;;;5014290;27;123637;-63
2023/09/05 07:08:29;;;;;;;13.93;4.53;;;;;;;;;;5017271;27;94966;-62
2023/09/05 07:10:55;;;;;;;10.77;4.72;;;;;;;;;;5016833;27;95509;-62
2023/09/05 07:13:22;;;;;;;6.28;4.15;;;;;;;;;;5018207;27;92650;-62
2023/09/05 07:15:48;;;;;;;9.95;4.00;;;;;;;;;;5018644;27;94163;-62
2023/09/05 07:18:14;;;;;;;14.70;4.07;;;;;;;;;;5015636;27;93445;-62
2023/09/05 07:20:41;;;;;;;12.68;3.88;;;;;;;;;;5022160;27;92402;-62
2023/09/05 07:23:07;;;;;;;7.15;3.33;;;;;;;;;;5026294;27;94174;-62
2023/09/05 07:25:40;;;;;;;6.35;3.00;;;;;;;;;;5015090;27;93047;-62
2023/09/05 07:28:06;;;;;;;5.80;3.00;;;;;;;;;;5026343;27;92408;-61
2023/09/05 07:30:33;;;;;;;7.10;3.08;;;;;;;;;;5013773;27;94696;-61
2023/09/05 07:32:59;;;;;;;12.95;2.83;;;;;;;;;;5014173;27;96813;-62
2023/09/05 07:35:26;;;;;;;6.45;3.33;;;;;;;;;;5020084;27;95518;-62
2023/09/05 07:37:52;;;;;;;7.78;2.72;;;;;;;;;;5023083;27;93318;-62
2023/09/05 07:40:19;;;;;;;8.70;2.92;;;;;;;;;;5018095;27;92436;-61
2023/09/05 07:42:45;;;;;;;7.82;2.45;;;;;;;;;;5013624;27;94336;-62
2023/09/05 07:45:12;;;;;;;19.92;3.10;;;;;;;;;;5015647;27;93260;-61
2023/09/05 07:47:38;;;;;;;7.78;2.67;;;;;;;;;;5016471;27;92390;-62
2023/09/05 07:50:05;;;;;;;11.60;2.50;;;;;;;;;;5014565;27;93247;-61
2023/09/05 07:52:32;;;;;;;6.25;2.83;;;;;;;;;;5013460;27;93402;-61
2023/09/05 07:54:59;;;;;;;4.05;2.53;;;;;;;;;;5017125;27;92524;-61
2023/09/05 07:57:25;;;;;;;4.10;2.30;;;;;;;;;;5011645;27;95861;-62
2023/09/05 07:59:52;;;;;;;10.68;2.78;;;;;;;;;;5019324;27;92436;-61
2023/09/05 08:02:18;;;;;;;7.70;2.45;;;;;;;;;;5015252;27;93161;-61
2023/09/05 08:04:45;;;;;;;9.70;2.60;;;;;;;;;;5013471;27;93348;-61
2023/09/05 08:07:11;;;;;;;8.20;2.35;;;;;;;;;;5017711;27;92604;-61
2023/09/05 08:09:37;;;;;;;4.65;2.58;;;;;;;;;;5017199;27;93098;-61
2023/09/05 08:12:04;;;;;;;3.25;2.53;;;;;;;;;;5016875;27;93443;-61
2023/09/05 08:14:31;;;;;;;6.28;2.38;;;;;;;;;;5013594;27;92297;-61
2023/09/05 08:16:57;;;;;;;7.75;2.33;;;;;;;;;;5020308;27;92721;-61
2023/09/05 08:19:24;;;;;;;5.03;2.67;;;;;;;;;;5012843;27;92412;-61
2023/09/05 08:21:51;;;;;;;9.32;2.22;;;;;;;;;;5015922;27;94900;-61
2023/09/05 08:24:17;;;;;;;8.90;2.47;;;;;;;;;;5012779;27;93376;-61
2023/09/05 08:26:43;;;;;;;9.88;2.70;;;;;;;;;;5012439;27;92654;-61
2023/09/05 08:29:10;;;;;;;7.45;2.80;;;;;;;;;;5012435;27;93142;-61
2023/09/05 08:31:36;;;;;;;4.65;2.42;;;;;;;;;;5012711;27;93395;-61
2023/09/05 08:34:03;;;;;;;8.82;2.83;;;;;;;;;;5012729;27;92580;-61
2023/09/05 08:36:29;;;;;;;3.08;2.10;;;;;;;;;;5012311;27;93095;-61
2023/09/05 08:38:56;;;;;;;5.57;2.40;;;;;;;;;;5029259;27;92877;-61
2023/09/05 08:41:22;;;;;;;6.40;2.45;;;;;;;;;;5017406;27;93421;-61
2023/09/05 08:43:48;;;;;;;3.60;2.53;;;;;;;;;;5011926;27;93588;-61
2023/09/05 08:46:15;;;;;;;9.10;3.55;;;;;;;;;;5015681;27;95090;-61
2023/09/05 08:48:42;;;;;;;7.75;3.15;;;;;;;;;;5016906;27;95460;-61
2023/09/05 08:51:21;;;;;;;4.82;2.65;;;;;;;;;;5011790;27;92387;-61
2023/09/05 08:53:56;;;;;;;16.40;3.65;;;;;;;;;;5015493;27;92960;-61
2023/09/05 08:56:23;;;;;;;8.70;2.92;;;;;;;;;;5013056;27;93547;-61
2023/09/05 08:58:51;;;;;;;12.55;3.10;;;;;;;;;;5015222;27;93370;-61
2023/09/05 09:01:18;;;;;;;16.75;2.92;;;;;;;;;;5017116;27;93148;-61
2023/09/05 09:03:47;;;;;;;7.07;2.73;;;;;;;;;;5013470;27;92713;-61
2023/09/05 09:06:13;;;;;;;7.97;2.90;;;;;;;;;;5012347;27;92988;-61
2023/09/05 09:08:43;;;;;;;6.03;2.58;;;;;;;;;;5016488;27;93122;-61
2023/09/05 09:11:10;;;;;;;;;;;;;;;;;;5011178;27;95862;-59
2023/09/05 09:13:38;;;;;;;6.35;2.65;;;;;;;;;;5012431;27;118385;-62
2023/09/05 09:16:05;;;;;;;9.43;2.83;;;;;;;;;;5013509;27;93702;-61
2023/09/05 09:18:32;;;;;;;5.93;2.40;;;;;;;;;;5012880;27;93437;-61
2023/09/05 09:21:08;;;;;;;20.38;2.85;;;;;;;;;;5015498;27;92548;-61
2023/09/05 09:23:35;;;;;;;5.97;2.42;;;;;;;;;;5012453;27;93755;-61
2023/09/05 09:26:02;;;;;;;3.72;2.30;;;;;;;;;;5011824;27;92517;-61
2023/09/05 09:28:31;;;;;;;7.20;2.55;;;;;;;;;;5012658;27;93069;-62
2023/09/05 09:30:59;;;;;;;7.20;2.70;;;;;;;;;;5012542;27;94359;-62
2023/09/05 09:33:25;;;;;;;9.95;2.60;;;;;;;;;;5011943;27;92486;-62
2023/09/05 09:36:01;;;;;;;7.00;2.35;;;;;;;;;;5014597;27;94889;-61
2023/09/05 09:38:28;;;;;;;5.13;2.20;;;;;;;;;;5015666;27;94534;-62
2023/09/05 09:40:55;;;;;;;7.63;2.58;;;;;;;;;;5016771;27;92460;-62
2023/09/05 09:43:21;;;;;;;7.30;2.25;;;;;;;;;;5017021;27;93062;-61
2023/09/05 09:45:48;;;;;;;2.17;1.95;;;;;;;;;;5019040;27;92804;-61
2023/09/05 09:48:15;;;;;;;4.05;2.30;;;;;;;;;;5019460;27;93025;-61
2023/09/05 09:50:45;;;;;;;8.20;2.70;;;;;;;;;;5015787;27;94582;-61
2023/09/05 09:53:12;;;;;;;3.95;2.10;;;;;;;;;;5015551;27;91782;-61
2023/09/05 09:55:43;;;;;;;4.35;2.25;;;;;;;;;;5015282;27;93448;-61
2023/09/05 09:58:11;;;;;;;4.18;2.17;;;;;;;;;;5015720;27;93376;-61
2023/09/05 10:00:40;;;;;;;5.78;2.15;;;;;;;;;;5017700;27;94972;-62
2023/09/05 10:03:08;;;;;;;8.20;2.63;;;;;;;;;;5019502;27;95561;-62
2023/09/05 10:05:35;;;;;;;3.50;2.50;;;;;;;;;;5018473;27;94429;-62
2023/09/05 10:08:02;;;;;;;8.57;2.13;;;;;;;;;;5014885;27;93098;-62
2023/09/05 10:10:32;;;;;;;4.28;2.35;;;;;;;;;;5014646;27;93436;-62
2023/09/05 10:13:00;;;;;;;8.13;2.20;;;;;;;;;;5018479;27;92828;-62
2023/09/05 10:15:28;;;;;;;6.40;2.13;;;;;;;;;;5015046;27;94321;-61
2023/09/05 10:17:56;;;;;;;11.73;2.60;;;;;;;;;;5018234;27;92709;-61
2023/09/05 10:20:25;;;;;;;3.45;1.92;;;;;;;;;;5018741;27;92532;-61
2023/09/05 10:22:54;;;;;;;3.55;1.80;;;;;;;;;;5019537;27;93929;-61
2023/09/05 10:25:21;;;;;;;7.80;1.95;;;;;;;;;;5017631;27;95719;-61
2023/09/05 10:27:48;;;;;;;5.65;1.98;;;;;;;;;;5017665;27;92584;-61
2023/09/05 10:30:15;;;;;;;5.07;1.88;;;;;;;;;;5015412;27;93396;-61
2023/09/05 10:32:44;;;;;;;5.65;1.95;;;;;;;;;;5015081;27;92421;-61
2023/09/05 10:35:16;;;;;;;6.53;2.20;;;;;;;;;;5015271;27;93121;-61
2023/09/05 10:37:59;;;;;;;4.55;2.00;;;;;;;;;;5015097;27;93357;-62
2023/09/05 10:40:36;;;;;;;14.88;2.38;;;;;;;;;;5014909;27;92469;-61
2023/09/05 10:43:04;;;;;;;5.25;1.70;;;;;;;;;;5018791;27;93013;-61
2023/09/05 10:45:32;;;;;;;7.20;2.00;;;;;;;;;;5018435;27;93338;-61
2023/09/05 10:48:09;;;;;;;17.75;1.88;;;;;;;;;;5017438;27;92693;-61
2023/09/05 10:51:02;;;;;;;2.13;1.92;;;;;;;;;;5027834;27;95978;-61
2023/09/05 10:53:28;;;;;;;3.97;1.70;;;;;;;;;;5011995;27;92822;-61
2023/09/05 10:55:55;;;;;;;6.40;1.90;;;;;;;;;;5013936;27;93358;-61
2023/09/05 10:58:42;;;;;;;5.15;1.80;;;;;;;;;;5014549;27;94133;-62
2023/09/05 11:01:29;;;;;;;6.90;1.77;;;;;;;;;;5014423;27;92588;-61
2023/09/05 11:03:56;;;;;;;3.80;2.03;;;;;;;;;;5018121;27;94106;-61
2023/09/05 11:06:22;;;;;;;13.07;2.03;;;;;;;;;;5014175;27;93399;-61
2023/09/05 11:08:57;;;;;;;2.75;1.83;;;;;;;;;;5019066;27;92175;-61
2023/09/05 11:11:23;;;;;;;8.50;2.08;;;;;;;;;;5017260;27;93268;-61
2023/09/05 11:13:50;;;;;;;4.90;1.80;;;;;;;;;;5013489;27;93097;-61
2023/09/05 11:16:17;;;;;;;3.67;1.90;;;;;;;;;;5020372;27;95672;-60
2023/09/05 11:18:55;;;;;;;8.48;1.83;;;;;;;;;;5014222;27;93390;-61
2023/09/05 11:21:24;;;;;;;4.45;1.80;;;;;;;;;;5014469;28;96210;-61
2023/09/05 11:23:54;;;;;;;6.22;1.80;;;;;;;;;;5016644;27;94103;-61
2023/09/05 11:26:21;;;;;;;5.93;1.63;;;;;;;;;;5013798;27;93539;-61
2023/09/05 11:28:51;;;;;;;3.97;1.50;;;;;;;;;;5014197;27;92625;-61
2023/09/05 11:31:18;;;;;;;2.35;1.67;;;;;;;;;;5014226;27;93484;-61
2023/09/05 11:33:45;;;;;;;2.53;1.60;;;;;;;;;;5017101;27;92804;-61
2023/09/05 11:36:11;;;;;;;2.70;1.83;;;;;;;;;;5013640;27;92677;-61
2023/09/05 11:38:48;;;;;;;5.43;1.95;;;;;;;;;;5014250;27;93533;-61
2023/09/05 11:41:15;;;;;;;3.08;1.80;;;;;;;;;;5012363;27;94792;-61
2023/09/05 11:43:49;;;;;;;4.05;1.92;;;;;;;;;;5013026;27;95459;-61
2023/09/05 11:46:16;;;;;;;3.45;1.67;;;;;;;;;;5020330;27;93434;-60
2023/09/05 11:48:43;;;;;;;7.07;2.03;;;;;;;;;;5017420;27;92594;-60
2023/09/05 11:51:12;;;;;;;5.47;1.70;;;;;;;;;;5017885;27;94224;-60
2023/09/05 11:53:38;;;;;;;5.45;1.75;;;;;;;;;;5013865;27;93437;-61
2023/09/05 11:56:04;;;;;;;7.70;1.70;;;;;;;;;;5016744;27;92536;-61
2023/09/05 11:58:31;;;;;;;1.85;1.73;;;;;;;;;;5013604;27;92544;-60
2023/09/05 12:00:57;;;;;;;2.83;1.75;;;;;;;;;;5013596;27;92545;-61
2023/09/05 12:03:24;;;;;;;4.50;1.70;;;;;;;;;;5017610;27;93616;-61
2023/09/05 12:05:51;;;;;;;8.57;1.60;;;;;;;;;;5010534;27;95464;-59
2023/09/05 12:08:20;;;;;;;5.05;1.98;;;;;;;;;;5016530;27;94599;-61
2023/09/05 12:11:03;;;;;;;3.75;1.40;;;;;;;;;;5017248;27;94521;-61
2023/09/05 12:13:37;;;;;;;7.40;1.88;;;;;;;;;;5016125;27;93400;-58
2023/09/05 12:16:08;;;;;;;5.00;2.35;;;;;;;;;;5015032;27;92561;-59
2023/09/05 12:18:35;;;;;;;2.17;1.40;;;;;;;;;;5017828;27;93456;-59
2023/09/05 12:21:01;;;;;;;1.65;1.50;;;;;;;;;;5021119;27;92464;-59
2023/09/05 12:23:28;;;;;;;63.20;8.43;;;;;;;;;;5017206;27;91784;-59
2023/09/05 12:25:55;;;;;;;3.00;1.60;;;;;;;;;;5013403;27;93470;-59
2023/09/05 12:28:22;;;;;;;616.70;73.43;;;;;;;;;;5012875;27;92773;-60
2023/09/05 12:30:49;;;;;;;35.55;33.20;;;;;;;;;;5010406;27;95197;-59
2023/09/05 12:33:17;;;;;;;24.80;23.15;;;;;;;;;;5012382;27;93696;-60
2023/09/05 12:35:44;;;;;;;41.60;38.88;;;;;;;;;;5014490;27;93270;-60
2023/09/05 12:38:10;;;;;;;31.20;28.85;;;;;;;;;;5012231;27;93903;-60
2023/09/05 12:40:37;;;;;;;13.43;12.57;;;;;;;;;;5014349;27;93905;-60
2023/09/05 12:43:04;;;;;;;21.05;19.65;;;;;;;;;;5010900;27;94153;-60
2023/09/05 12:45:31;;;;;;;21.55;19.95;;;;;;;;;;5010969;27;94532;-60
2023/09/05 12:47:57;;;;;;;22.15;20.40;;;;;;;;;;5014530;27;93227;-61
2023/09/05 12:50:36;;;;;;;22.42;21.00;;;;;;;;;;5009639;27;95236;-60
2023/09/05 12:53:04;;;;;;;24.60;22.77;;;;;;;;;;5009708;27;95504;-61
2023/09/05 12:55:32;;;;;;;23.77;21.73;;;;;;;;;;5012440;27;97928;-61
2023/09/05 12:58:02;;;;;;;20.20;18.85;;;;;;;;;;5013011;27;97989;-60
2023/09/05 13:00:33;;;;;;;19.80;18.25;;;;;;;;;;5008777;27;95823;-60
2023/09/05 13:03:05;;;;;;;14.18;13.13;;;;;;;;;;5012155;27;94839;-61
2023/09/05 13:05:32;;;;;;;15.73;14.18;;;;;;;;;;5009501;27;96173;-59
2023/09/05 13:07:59;;;;;;;13.95;12.63;;;;;;;;;;5018049;27;95016;-59
2023/09/05 13:10:25;;;;;;;13.27;11.87;;;;;;;;;;5008889;27;95636;-59
2023/09/05 13:12:51;;;;;;;10.73;9.73;;;;;;;;;;5010255;27;96067;-59
2023/09/05 13:15:18;;;;;;;10.45;9.52;;;;;;;;;;5009829;27;95002;-59
2023/09/05 13:17:45;;;;;;;11.48;10.40;;;;;;;;;;5016028;27;95579;-59
2023/09/05 13:20:14;;;;;;;11.25;10.35;;;;;;;;;;5010951;27;98687;-59
2023/09/05 13:22:48;;;;;;;12.20;11.27;;;;;;;;;;5015123;27;95194;-59
2023/09/05 13:25:18;;;;;;;8.40;7.78;;;;;;;;;;5012897;27;96849;-59
2023/09/05 13:27:45;;;;;;;9.63;9.02;;;;;;;;;;5012774;27;95020;-59
2023/09/05 13:30:12;;;;;;;9.55;8.75;;;;;;;;;;5012638;27;95488;-59
2023/09/05 13:32:38;;;;;;;12.07;10.98;;;;;;;;;;5017472;27;95861;-59
2023/09/05 13:35:05;;;;;;;10.95;9.57;;;;;;;;;;5012109;27;94933;-59
2023/09/05 13:37:32;;;;;;;11.63;9.80;;;;;;;;;;5026642;27;96731;-59
2023/09/05 13:39:58;;;;;;;7.47;6.88;;;;;;;;;;5017253;27;95911;-59
2023/09/05 13:42:24;;;;;;;9.00;8.20;;;;;;;;;;5013248;27;94901;-59
2023/09/05 13:44:51;;;;;;;15.55;14.27;;;;;;;;;;5018258;27;97452;-60
2023/09/05 13:47:17;;;;;;;18.25;17.02;;;;;;;;;;5019640;27;95059;-59
2023/09/05 13:49:44;;;;;;;18.25;15.98;;;;;;;;;;5012249;27;95663;-59
2023/09/05 13:52:12;;;;;;;24.38;22.23;;;;;;;;;;5011773;27;96280;-59
2023/09/05 13:54:38;;;;;;;13.13;12.13;;;;;;;;;;5014350;27;95369;-59
2023/09/05 13:57:07;;;;;;;15.55;14.05;;;;;;;;;;5013542;27;95086;-59
2023/09/05 13:59:33;;;;;;;28.70;26.58;;;;;;;;;;5012224;27;95846;-59
2023/09/05 14:02:00;;;;;;;35.53;32.83;;;;;;;;;;5017887;27;94250;-59
2023/09/05 14:04:26;;;;;;;28.58;26.33;;;;;;;;;;5015828;27;96069;-59
2023/09/05 14:06:53;;;;;;;34.95;32.03;;;;;;;;;;5023237;27;95844;-59
2023/09/05 14:09:20;;;;;;;22.42;20.83;;;;;;;;;;5010345;27;97492;-60
2023/09/05 14:11:46;;;;;;;27.33;25.13;;;;;;;;;;5011846;27;95878;-59
2023/09/05 14:14:15;;;;;;;24.10;21.83;;;;;;;;;;5010982;27;95218;-59
2023/09/05 14:16:43;;;;;;;28.50;25.90;;;;;;;;;;5015263;27;95638;-59
2023/09/05 14:19:09;;;;;;;21.70;19.60;;;;;;;;;;5011791;27;95987;-59
2023/09/05 14:21:36;;;;;;;24.15;22.15;;;;;;;;;;5011489;27;94879;-59
2023/09/05 14:24:02;;;;;;;17.98;16.70;;;;;;;;;;5011430;27;96632;-59
2023/09/05 14:26:30;;;;;;;14.20;12.98;;;;;;;;;;5020494;27;96695;-60
2023/09/05 14:28:59;;;;;;;21.42;19.55;;;;;;;;;;5014081;27;94968;-59
2023/09/05 14:31:25;;;;;;;14.52;13.63;;;;;;;;;;5011211;27;95940;-59
2023/09/05 14:33:52;;;;;;;19.25;17.65;;;;;;;;;;5010273;27;97436;-59
2023/09/05 14:36:19;;;;;;;17.65;16.30;;;;;;;;;;5011656;27;98055;-59
2023/09/05 14:38:46;;;;;;;14.73;13.60;;;;;;;;;;5011893;27;96184;-59
2023/09/05 14:41:12;;;;;;;12.32;11.32;;;;;;;;;;5010857;27;94824;-59